Time;durP1;ratioP1;P1;durP2;ratioP2;P2;SDS_P1;SDS_P2;PMS_P1;PMS_P2;Temp;Humidity;BMP_temperature;BMP_pressure;BME280_temperature;BME280_humidity;BME280_pressure;Samples;Min_cycle;Max_cycle;Signal;HPM_P1;HPM_P2
2022/08/15 00:00:54;;;;;;;4.40;3.63;;;22.50;99.90;;;;;;5034519;28;20418;-70
2022/08/15 00:03:32;;;;;;;4.50;4.07;;;22.50;99.90;;;;;;5034373;28;20405;-70
2022/08/15 00:06:01;;;;;;;3.93;3.63;;;22.50;99.90;;;;;;5033998;28;20409;-70
2022/08/15 00:08:31;;;;;;;4.03;2.90;;;22.50;99.90;;;;;;5032551;28;20402;-70
2022/08/15 00:11:11;;;;;;;3.23;2.93;;;22.70;96.70;;;;;;5033505;28;20872;-71
2022/08/15 00:13:38;;;;;;;4.63;3.17;;;22.90;94.60;;;;;;5033675;28;20401;-71
2022/08/15 00:16:05;;;;;;;6.10;3.63;;;23.10;93.60;;;;;;5033164;28;20406;-70
2022/08/15 00:18:31;;;;;;;3.13;2.83;;;23.20;93.60;;;;;;5033346;28;20410;-70
2022/08/15 00:20:58;;;;;;;3.40;2.47;;;23.30;91.40;;;;;;5033365;28;20450;-71
2022/08/15 00:23:26;;;;;;;2.93;2.63;;;23.50;91.70;;;;;;5033121;28;20918;-71
2022/08/15 00:25:55;;;;;;;3.83;2.80;;;23.60;90.60;;;;;;5033065;28;20408;-71
2022/08/15 00:28:21;;;;;;;3.33;2.53;;;23.70;91.70;;;;;;5033255;28;20413;-71
2022/08/15 00:30:46;;;;;;;3.10;2.80;;;23.80;90.50;;;;;;5033363;28;20410;-71
2022/08/15 00:33:14;;;;;;;4.60;2.50;;;23.80;90.20;;;;;;5033196;28;20552;-71
2022/08/15 00:35:45;;;;;;;4.07;2.30;;;23.90;89.70;;;;;;5032878;28;20175;-70
2022/08/15 00:38:20;;;;;;;8.40;2.40;;;24.00;89.10;;;;;;5032953;28;20391;-70
2022/08/15 00:43:34;;;;;;;2.80;2.50;;;24.20;87.50;;;;;;5033191;28;20412;-71
2022/08/15 00:46:03;;;;;;;3.40;1.70;;;24.30;87.70;;;;;;5032397;28;20429;-71
2022/08/15 00:48:41;;;;;;;3.60;2.00;;;24.40;88.30;;;;;;5033054;28;20904;-71
2022/08/15 00:51:12;;;;;;;2.50;2.13;;;24.40;87.30;;;;;;5032736;28;20483;-71
2022/08/15 00:53:41;;;;;;;4.20;2.60;;;24.50;87.50;;;;;;5032782;28;20410;-71
2022/08/15 00:56:08;;;;;;;4.07;2.90;;;24.50;89.20;;;;;;5032626;28;20410;-71
2022/08/15 00:58:34;;;;;;;2.57;2.30;;;24.50;88.80;;;;;;5032577;28;20407;-70
2022/08/15 01:01:00;;;;;;;2.90;2.07;;;24.60;89.10;;;;;;5032610;28;20417;-70
2022/08/15 01:03:31;;;;;;;2.33;2.00;;;24.60;89.90;;;;;;5032553;28;20407;-70
2022/08/15 01:05:59;;;;;;;3.20;3.00;;;24.60;90.20;;;;;;5032218;28;20407;-70
2022/08/15 01:08:33;;;;;;;2.20;2.00;;;24.70;90.60;;;;;;5032457;28;20418;-70
2022/08/15 01:11:03;;;;;;;4.23;1.70;;;24.70;90.70;;;;;;5032397;28;20770;-70
2022/08/15 01:13:33;;;;;;;2.37;2.17;;;24.70;90.60;;;;;;5032544;28;20402;-70
2022/08/15 01:15:59;;;;;;;3.97;2.37;;;24.70;91.00;;;;;;5030953;28;20430;-71
2022/08/15 01:18:25;;;;;;;2.90;2.07;;;24.70;91.00;;;;;;5032341;28;20413;-71
2022/08/15 01:20:57;;;;;;;4.07;2.83;;;24.70;90.70;;;;;;5031789;28;20170;-71
2022/08/15 01:23:35;;;;;;;4.83;2.13;;;24.70;90.70;;;;;;5031994;28;20403;-71
2022/08/15 01:26:04;;;;;;;2.73;2.20;;;24.60;91.20;;;;;;5031989;28;20813;-71
2022/08/15 01:28:40;;;;;;;3.40;2.57;;;24.60;91.00;;;;;;5032330;28;20876;-71
2022/08/15 01:31:10;;;;;;;2.80;2.30;;;24.50;91.30;;;;;;5032164;28;20781;-71
2022/08/15 01:33:42;;;;;;;2.63;2.40;;;24.50;91.50;;;;;;5032214;28;20457;-71
2022/08/15 01:36:09;;;;;;;2.47;1.87;;;24.50;91.80;;;;;;5031936;28;20453;-71
2022/08/15 01:38:39;;;;;;;2.40;2.20;;;24.40;92.50;;;;;;5032014;28;20414;-71
2022/08/15 01:41:13;;;;;;;1.53;1.43;;;24.40;93.10;;;;;;5032147;28;20406;-71
2022/08/15 01:43:57;;;;;;;2.43;2.23;;;24.40;93.00;;;;;;5032191;28;20417;-71
2022/08/15 01:46:28;;;;;;;4.83;2.10;;;24.30;93.20;;;;;;5031716;28;20446;-71
2022/08/15 01:49:02;;;;;;;3.87;3.53;;;24.30;93.00;;;;;;5032141;28;20405;-71
2022/08/15 01:51:28;;;;;;;4.70;2.40;;;24.30;93.50;;;;;;5031915;28;20834;-71
2022/08/15 01:54:01;;;;;;;2.20;2.00;;;24.20;93.40;;;;;;5031957;28;20497;-71
2022/08/15 01:56:31;;;;;;;2.23;1.90;;;24.30;93.50;;;;;;5031693;28;20171;-71
2022/08/15 01:58:58;;;;;;;2.10;2.00;;;24.30;93.30;;;;;;5031986;28;20402;-71
2022/08/15 02:02:00;;;;;;;5.90;2.20;;;24.20;94.10;;;;;;5031998;28;20422;-71
2022/08/15 02:04:31;;;;;;;4.13;2.30;;;24.20;93.80;;;;;;5020103;28;20449;-71
2022/08/15 02:06:59;;;;;;;2.07;1.87;;;24.30;93.40;;;;;;5031846;28;20445;-71
2022/08/15 02:09:26;;;;;;;2.50;1.97;;;24.20;93.40;;;;;;5031973;28;20809;-71
2022/08/15 02:11:52;;;;;;;2.90;1.80;;;24.20;93.70;;;;;;5031831;28;20487;-71
2022/08/15 02:14:20;;;;;;;2.30;2.10;;;24.20;93.90;;;;;;5031539;28;20773;-71
2022/08/15 02:16:46;;;;;;;2.43;1.70;;;24.10;93.90;;;;;;5030536;28;20417;-71
2022/08/15 02:19:13;;;;;;;1.90;1.63;;;24.10;94.20;;;;;;5031816;28;20402;-71
2022/08/15 02:21:41;;;;;;;2.40;1.70;;;24.10;94.30;;;;;;5031649;28;20445;-71
2022/08/15 02:24:11;;;;;;;1.97;1.57;;;24.00;94.50;;;;;;5031622;28;20410;-71
2022/08/15 02:26:36;;;;;;;3.90;2.40;;;23.90;94.90;;;;;;5031340;28;20974;-71
2022/08/15 02:29:04;;;;;;;1.77;1.67;;;23.90;94.70;;;;;;5031724;28;20617;-71
2022/08/15 02:31:31;;;;;;;1.97;1.77;;;23.80;95.00;;;;;;5032358;28;20183;-71
2022/08/15 02:33:59;;;;;;;1.63;1.53;;;23.80;94.90;;;;;;5035526;28;20437;-71
2022/08/15 02:36:27;;;;;;;2.30;1.77;;;23.80;95.80;;;;;;5035070;28;20505;-71
2022/08/15 02:38:53;;;;;;;2.07;1.87;;;23.80;96.10;;;;;;5035373;28;20829;-71
2022/08/15 02:41:33;;;;;;;4.50;2.53;;;23.70;96.90;;;;;;5035285;28;20484;-71
2022/08/15 02:44:00;;;;;;;2.60;2.40;;;23.70;97.50;;;;;;5035403;28;20413;-71
2022/08/15 02:46:27;;;;;;;7.93;2.60;;;23.60;98.50;;;;;;5034876;28;20500;-71
2022/08/15 02:48:53;;;;;;;2.57;2.37;;;23.60;99.20;;;;;;5035248;28;20417;-71
2022/08/15 02:51:21;;;;;;;1.93;1.80;;;23.60;99.60;;;;;;5034815;28;20445;-71
2022/08/15 02:53:49;;;;;;;2.40;1.93;;;23.60;99.30;;;;;;5035078;28;20471;-71
2022/08/15 02:56:17;;;;;;;2.57;2.37;;;23.50;99.80;;;;;;5034687;28;20845;-71
2022/08/15 02:58:44;;;;;;;2.40;2.13;;;23.50;99.90;;;;;;5033629;28;20417;-71
2022/08/15 03:01:11;;;;;;;2.10;1.90;;;23.40;99.90;;;;;;5034977;28;20517;-71
2022/08/15 03:03:39;;;;;;;4.13;3.50;;;23.40;99.90;;;;;;5034878;28;20493;-71
2022/08/15 03:06:08;;;;;;;2.23;2.03;;;23.40;99.90;;;;;;5034537;28;20551;-71
2022/08/15 03:08:34;;;;;;;2.53;1.63;;;23.30;99.90;;;;;;5034718;28;20438;-71
2022/08/15 03:11:02;;;;;;;2.47;1.90;;;23.30;99.90;;;;;;5034754;28;20403;-71
2022/08/15 03:13:27;;;;;;;3.00;1.77;;;23.30;99.90;;;;;;5034701;28;20908;-71
2022/08/15 03:15:56;;;;;;;2.30;1.87;;;23.20;99.90;;;;;;5033158;28;20410;-71
2022/08/15 03:18:24;;;;;;;2.27;2.07;;;23.20;99.90;;;;;;5034648;28;20175;-71
2022/08/15 03:20:53;;;;;;;2.50;2.30;;;23.20;99.90;;;;;;5033385;28;20493;-71
2022/08/15 03:23:21;;;;;;;3.20;1.80;;;23.20;99.90;;;;;;5034591;28;20822;-71
2022/08/15 03:25:50;;;;;;;2.10;1.90;;;23.10;99.90;;;;;;5034188;28;20472;-71
2022/08/15 03:28:22;;;;;;;2.70;2.10;;;23.10;99.90;;;;;;5034444;28;20421;-71
2022/08/15 03:30:47;;;;;;;2.50;2.20;;;23.10;99.90;;;;;;5033155;28;20414;-71
2022/08/15 03:33:13;;;;;;;2.47;1.80;;;23.20;99.90;;;;;;5034172;28;20923;-71
2022/08/15 03:35:43;;;;;;;3.20;1.93;;;23.20;99.90;;;;;;5034032;28;20195;-71
2022/08/15 03:38:09;;;;;;;2.10;1.90;;;23.20;99.90;;;;;;5034291;28;20414;-71
2022/08/15 03:40:36;;;;;;;2.70;2.10;;;23.20;99.90;;;;;;5034259;28;20414;-71
2022/08/15 03:43:21;;;;;;;3.17;2.17;;;23.20;99.90;;;;;;5033819;28;20429;-73
2022/08/15 03:45:51;;;;;;;1.40;1.30;;;23.20;99.90;;;;;;5033873;28;20406;-71
2022/08/15 03:48:23;;;;;;;4.67;2.33;;;23.20;99.90;;;;;;5032730;28;20939;-71
2022/08/15 03:50:51;;;;;;;3.83;2.13;;;23.30;99.90;;;;;;5033880;28;20406;-71
2022/08/15 03:53:17;;;;;;;2.83;2.63;;;23.20;99.90;;;;;;5033925;28;20430;-71
2022/08/15 03:55:42;;;;;;;1.80;1.63;;;23.20;99.90;;;;;;5033556;28;20461;-71
2022/08/15 03:58:09;;;;;;;2.63;2.33;;;23.30;99.90;;;;;;5034003;28;20264;-71
2022/08/15 04:00:38;;;;;;;3.00;2.07;;;23.30;99.90;;;;;;5033818;28;20171;-71
2022/08/15 04:03:04;;;;;;;3.13;2.60;;;23.30;99.90;;;;;;5032472;28;20805;-71
2022/08/15 04:05:30;;;;;;;3.00;1.90;;;23.30;99.90;;;;;;5033474;28;20406;-71
2022/08/15 04:07:56;;;;;;;2.20;1.90;;;23.30;99.90;;;;;;5033725;28;20195;-71
2022/08/15 04:10:21;;;;;;;1.93;1.73;;;23.40;99.90;;;;;;5033584;28;20555;-71
2022/08/15 04:12:47;;;;;;;2.20;1.93;;;23.40;99.90;;;;;;5033599;28;20427;-71
2022/08/15 04:15:15;;;;;;;2.50;1.70;;;23.40;99.90;;;;;;5033383;28;20168;-71
2022/08/15 04:17:42;;;;;;;2.10;1.90;;;23.40;99.90;;;;;;5033624;28;20226;-71
2022/08/15 04:20:10;;;;;;;5.63;3.20;;;23.40;99.90;;;;;;5033427;28;20403;-71
2022/08/15 04:22:41;;;;;;;4.23;2.90;;;23.40;99.90;;;;;;5033367;28;20430;-71
2022/08/15 04:25:12;;;;;;;3.00;2.07;;;23.40;99.90;;;;;;5033107;28;20834;-71
2022/08/15 04:27:40;;;;;;;2.33;1.80;;;23.40;99.90;;;;;;5033435;28;21019;-71
2022/08/15 04:30:07;;;;;;;2.10;1.90;;;23.50;99.90;;;;;;5033273;28;20411;-71
2022/08/15 04:32:32;;;;;;;3.30;1.80;;;23.50;99.90;;;;;;5031928;28;20434;-71
2022/08/15 04:35:02;;;;;;;2.97;2.00;;;23.60;99.90;;;;;;5032836;28;20428;-70
2022/08/15 04:37:28;;;;;;;2.73;2.30;;;23.60;99.90;;;;;;5033145;28;20168;-71
2022/08/15 04:39:55;;;;;;;3.00;2.33;;;23.60;99.90;;;;;;5033036;28;20403;-70
2022/08/15 04:42:21;;;;;;;2.80;2.40;;;23.60;99.90;;;;;;5032904;28;20834;-71
2022/08/15 04:44:48;;;;;;;4.00;1.80;;;23.60;99.90;;;;;;5032686;28;20398;-71
2022/08/15 04:47:14;;;;;;;1.97;1.70;;;23.60;99.90;;;;;;5032860;28;20533;-71
2022/08/15 04:49:41;;;;;;;5.07;2.00;;;23.60;99.90;;;;;;5032776;28;20410;-70
2022/08/15 04:52:10;;;;;;;1.60;1.50;;;23.60;99.90;;;;;;5032660;28;20441;-71
2022/08/15 04:54:36;;;;;;;2.70;2.50;;;23.50;99.90;;;;;;5031923;28;20410;-71
2022/08/15 04:57:02;;;;;;;2.63;2.23;;;23.50;99.90;;;;;;5032773;28;20413;-71
2022/08/15 04:59:28;;;;;;;1.90;1.70;;;23.60;99.90;;;;;;5032734;28;20908;-71
2022/08/15 05:01:53;;;;;;;5.50;1.93;;;23.60;99.90;;;;;;5032620;28;20429;-71
2022/08/15 05:04:19;;;;;;;4.40;1.97;;;23.50;99.90;;;;;;5030966;28;20180;-71
2022/08/15 05:06:45;;;;;;;2.37;2.00;;;23.50;99.90;;;;;;5032572;28;20191;-70
2022/08/15 05:09:10;;;;;;;2.77;2.37;;;23.50;99.90;;;;;;5032530;28;20418;-70
2022/08/15 05:11:36;;;;;;;2.30;1.63;;;23.50;99.90;;;;;;5032453;28;20237;-72
2022/08/15 05:14:02;;;;;;;4.67;2.10;;;23.60;99.90;;;;;;5032575;28;20175;-71
2022/08/15 05:16:28;;;;;;;3.90;1.90;;;23.60;99.90;;;;;;5032164;28;20406;-71
2022/08/15 05:18:54;;;;;;;2.33;2.13;;;23.60;99.90;;;;;;5032311;28;20830;-71
2022/08/15 05:21:19;;;;;;;2.27;2.07;;;23.60;99.90;;;;;;5032375;28;20198;-71
2022/08/15 05:23:45;;;;;;;2.70;2.13;;;23.60;99.90;;;;;;5032335;28;20163;-71
2022/08/15 05:26:12;;;;;;;2.23;2.03;;;23.70;99.90;;;;;;5031876;28;20671;-71
2022/08/15 05:28:38;;;;;;;2.33;2.00;;;23.70;99.90;;;;;;5031153;28;20174;-71
2022/08/15 05:31:07;;;;;;;3.83;2.37;;;23.70;99.90;;;;;;5030952;28;20418;-71
2022/08/15 05:33:33;;;;;;;2.43;2.20;;;23.70;99.90;;;;;;5032241;28;20651;-70
2022/08/15 05:36:02;;;;;;;4.90;2.60;;;23.80;99.90;;;;;;5032010;28;20418;-71
2022/08/15 05:38:40;;;;;;;2.67;2.47;;;23.80;99.90;;;;;;5032229;28;20958;-72
2022/08/15 05:41:21;;;;;;;3.80;2.30;;;23.80;99.90;;;;;;5032201;28;20489;-71
2022/08/15 05:43:56;;;;;;;3.23;2.80;;;23.90;99.90;;;;;;5032263;28;20406;-71
2022/08/15 05:46:35;;;;;;;6.40;2.67;;;24.10;99.90;;;;;;5031901;28;21024;-71
2022/08/15 05:49:08;;;;;;;2.80;2.40;;;24.10;99.90;;;;;;5030831;28;20426;-71
2022/08/15 05:52:04;;;;;;;7.10;3.63;;;24.20;99.90;;;;;;5032211;28;20465;-71
2022/08/15 05:54:56;;;;;;;5.20;3.23;;;24.20;99.90;;;;;;5029412;28;20572;-71
2022/08/15 05:57:35;;;;;;;8.77;5.17;;;24.30;99.90;;;;;;5028936;28;20573;-71
2022/08/15 06:00:15;;;;;;;3.23;2.60;;;24.40;99.90;;;;;;5030672;28;20505;-71
2022/08/15 06:02:47;;;;;;;8.73;5.20;;;24.40;99.90;;;;;;5031902;28;20436;-70
2022/08/15 06:05:31;;;;;;;6.57;5.03;;;24.60;99.90;;;;;;5032086;28;20417;-71
2022/08/15 06:08:00;;;;;;;9.17;5.20;;;24.60;99.90;;;;;;5035908;28;20453;-71
2022/08/15 06:11:08;;;;;;;5.50;3.70;;;24.60;99.90;;;;;;5034628;28;20787;-71
2022/08/15 06:13:43;;;;;;;2.30;2.10;;;24.70;99.90;;;;;;5032875;28;20483;-71
2022/08/15 06:16:28;;;;;;;3.30;2.77;;;24.70;99.90;;;;;;5034407;28;20421;-71
2022/08/15 06:18:55;;;;;;;2.50;2.20;;;24.70;99.90;;;;;;5034484;28;20414;-71
2022/08/15 06:21:47;;;;;;;2.30;2.10;;;24.90;99.90;;;;;;5035594;28;20444;-71
2022/08/15 06:24:26;;;;;;;3.07;2.77;;;25.00;99.90;;;;;;5035615;28;20494;-71
2022/08/15 06:26:58;;;;;;;4.20;2.37;;;25.20;99.90;;;;;;5035558;28;20445;-71
2022/08/15 06:29:46;;;;;;;2.60;2.30;;;25.20;99.90;;;;;;5035681;28;20428;-71
2022/08/15 06:32:28;;;;;;;2.87;2.43;;;25.40;99.90;;;;;;5035367;28;20516;-71
2022/08/15 06:35:02;;;;;;;3.00;2.27;;;25.50;99.90;;;;;;5035120;28;20432;-71
2022/08/15 06:37:34;;;;;;;4.87;2.00;;;25.50;99.90;;;;;;5035393;28;20402;-71
2022/08/15 06:40:23;;;;;;;3.20;2.00;;;25.40;99.90;;;;;;5035440;28;20977;-71
2022/08/15 06:42:48;;;;;;;2.27;1.80;;;25.30;99.90;;;;;;5035355;28;20433;-71
2022/08/15 06:45:22;;;;;;;2.60;2.20;;;25.20;99.90;;;;;;5034967;28;20409;-71
2022/08/15 06:47:50;;;;;;;3.17;2.23;;;25.20;99.90;;;;;;5035206;28;20568;-71
2022/08/15 06:50:33;;;;;;;3.17;2.33;;;25.00;99.90;;;;;;5035070;28;20418;-71
2022/08/15 06:53:26;;;;;;;2.70;2.20;;;25.00;99.90;;;;;;5034998;28;20509;-71
2022/08/15 06:56:17;;;;;;;8.67;2.13;;;25.00;99.90;;;;;;5034545;28;20416;-71
2022/08/15 06:59:10;;;;;;;5.57;2.17;;;25.10;99.90;;;;;;5035080;28;20442;-71
2022/08/15 07:02:03;;;;;;;2.90;2.27;;;25.10;99.90;;;;;;5034728;28;20452;-71
2022/08/15 07:04:50;;;;;;;4.10;2.23;;;25.20;99.90;;;;;;5034627;28;20499;-71
2022/08/15 07:07:45;;;;;;;4.57;1.80;;;25.20;99.90;;;;;;5034703;28;20456;-71
2022/08/15 07:10:32;;;;;;;5.07;2.37;;;25.40;99.90;;;;;;5034742;28;20513;-71
2022/08/15 07:13:05;;;;;;;3.50;2.37;;;25.50;99.90;;;;;;5034586;28;20433;-71
2022/08/15 07:16:01;;;;;;;2.30;2.10;;;25.60;99.90;;;;;;5034751;28;20401;-70
2022/08/15 07:18:39;;;;;;;6.53;2.33;;;25.80;99.90;;;;;;5030153;28;20452;-70
2022/08/15 07:21:11;;;;;;;2.00;1.73;;;25.80;99.90;;;;;;5035308;28;20501;-70
2022/08/15 07:24:02;;;;;;;9.23;2.37;;;25.80;99.90;;;;;;5035569;28;20437;-70
2022/08/15 07:26:31;;;;;;;2.37;1.97;;;25.70;99.90;;;;;;5035128;28;20449;-70
2022/08/15 07:28:59;;;;;;;4.07;2.43;;;25.60;99.90;;;;;;5035575;28;20771;-70
2022/08/15 07:31:36;;;;;;;1.83;1.67;;;25.40;99.90;;;;;;5034580;28;20422;-70
2022/08/15 07:34:19;;;;;;;2.20;2.00;;;25.40;99.90;;;;;;5035384;28;20475;-70
2022/08/15 07:36:57;;;;;;;3.33;1.77;;;25.40;99.90;;;;;;5033900;28;20405;-71
2022/08/15 07:39:35;;;;;;;2.43;2.20;;;25.40;99.90;;;;;;5034352;28;20422;-71
2022/08/15 07:42:19;;;;;;;3.53;2.20;;;25.20;99.90;;;;;;5034191;28;20483;-70
2022/08/15 07:44:57;;;;;;;2.60;2.40;;;25.00;99.90;;;;;;5034091;28;20926;-70
2022/08/15 07:47:32;;;;;;;2.07;1.87;;;25.00;99.90;;;;;;5034799;28;20460;-70
2022/08/15 07:49:58;;;;;;;2.23;1.90;;;24.90;99.90;;;;;;5033850;28;20429;-70
2022/08/15 07:52:24;;;;;;;4.93;2.10;;;24.90;99.90;;;;;;5033727;28;20461;-70
2022/08/15 07:55:10;;;;;;;3.03;2.40;;;24.80;99.90;;;;;;5034571;28;20418;-70
2022/08/15 07:57:37;;;;;;;2.90;2.10;;;24.90;99.90;;;;;;5033803;28;20516;-70
2022/08/15 08:00:14;;;;;;;2.40;2.13;;;24.90;99.90;;;;;;5034451;28;20418;-71
2022/08/15 08:02:46;;;;;;;1.93;1.60;;;25.00;99.90;;;;;;5032488;28;20434;-71
2022/08/15 08:05:12;;;;;;;3.10;2.10;;;25.00;99.90;;;;;;5033523;28;20600;-71
2022/08/15 08:07:44;;;;;;;2.90;2.40;;;25.00;99.90;;;;;;5033549;28;20533;-71
2022/08/15 08:10:21;;;;;;;3.20;2.30;;;25.00;99.90;;;;;;5033646;28;20214;-72
2022/08/15 08:13:25;;;;;;;4.30;2.30;;;25.00;99.90;;;;;;5034076;28;20426;-72
2022/08/15 08:16:04;;;;;;;2.60;1.97;;;25.00;99.90;;;;;;5033099;28;20493;-71
2022/08/15 08:19:02;;;;;;;2.70;1.70;;;25.00;99.90;;;;;;5033951;28;20409;-70
2022/08/15 08:21:44;;;;;;;2.77;2.03;;;25.00;99.90;;;;;;5031621;28;20466;-71
2022/08/15 08:24:22;;;;;;;3.87;2.27;;;25.00;99.90;;;;;;5033317;28;20799;-70
2022/08/15 08:27:01;;;;;;;2.43;2.20;;;25.00;99.90;;;;;;5033273;28;20477;-72
2022/08/15 08:29:35;;;;;;;2.40;1.60;;;25.10;99.90;;;;;;5032246;28;20899;-70
2022/08/15 08:32:22;;;;;;;2.43;2.23;;;25.20;99.90;;;;;;5033182;28;20418;-71
2022/08/15 08:34:47;;;;;;;3.97;2.87;;;25.40;99.90;;;;;;5032897;28;20403;-71
2022/08/15 08:37:19;;;;;;;2.30;2.10;;;25.60;99.90;;;;;;5033079;28;20481;-72
2022/08/15 08:39:53;;;;;;;3.00;1.97;;;25.70;99.90;;;;;;5032994;28;20214;-70
2022/08/15 08:42:45;;;;;;;2.57;2.37;;;25.90;99.90;;;;;;5032964;28;20429;-71
2022/08/15 08:45:45;;;;;;;3.20;1.80;;;26.00;99.90;;;;;;5032677;28;20505;-71
2022/08/15 08:48:31;;;;;;;3.80;2.63;;;26.10;99.90;;;;;;5032783;28;20449;-72
2022/08/15 08:51:03;;;;;;;2.67;2.17;;;26.00;99.90;;;;;;5033059;28;20445;-72
2022/08/15 08:53:32;;;;;;;3.47;2.30;;;25.90;99.90;;;;;;5033806;28;20836;-73
2022/08/15 08:56:06;;;;;;;2.97;2.77;;;25.90;99.90;;;;;;5032469;28;20433;-73
2022/08/15 08:58:42;;;;;;;2.70;2.33;;;25.70;99.90;;;;;;5033222;28;20455;-70
2022/08/15 09:01:11;;;;;;;2.90;2.47;;;25.60;99.90;;;;;;5033514;28;20405;-71
2022/08/15 09:03:48;;;;;;;3.00;2.00;;;25.50;99.90;;;;;;5033601;28;20950;-71
2022/08/15 09:06:18;;;;;;;2.93;2.73;;;25.40;99.90;;;;;;5032805;28;20433;-71
2022/08/15 09:08:51;;;;;;;3.00;1.90;;;25.30;99.90;;;;;;5032516;28;20434;-72
2022/08/15 09:11:26;;;;;;;2.80;2.50;;;25.30;99.90;;;;;;5032170;28;20846;-72
2022/08/15 09:13:58;;;;;;;2.63;1.50;;;25.40;99.90;;;;;;5032429;28;20432;-72
2022/08/15 09:16:32;;;;;;;4.00;2.27;;;25.40;99.90;;;;;;5032032;28;20497;-71
2022/08/15 09:19:23;;;;;;;2.20;2.00;;;25.40;99.90;;;;;;5032142;28;20428;-71
2022/08/15 09:21:50;;;;;;;3.10;2.80;;;25.40;99.90;;;;;;5032384;28;20422;-71
2022/08/15 09:24:19;;;;;;;2.23;2.03;;;25.50;99.90;;;;;;5031736;28;20473;-71
2022/08/15 09:27:04;;;;;;;6.87;2.10;;;25.50;99.90;;;;;;5031879;28;20481;-71
2022/08/15 09:29:57;;;;;;;2.90;2.30;;;25.40;99.90;;;;;;5031952;28;20394;-71
2022/08/15 09:32:29;;;;;;;2.10;1.83;;;25.40;99.90;;;;;;5030527;28;20450;-70
2022/08/15 09:35:41;;;;;;;2.30;1.90;;;25.50;99.90;;;;;;5031610;28;20394;-70
2022/08/15 09:38:31;;;;;;;5.83;3.10;;;25.70;99.90;;;;;;5031616;28;20498;-71
2022/08/15 09:41:20;;;;;;;4.03;3.57;;;25.80;99.90;;;;;;5031493;28;20899;-71
2022/08/15 09:44:06;;;;;;;3.97;2.57;;;25.90;99.90;;;;;;5031301;28;20464;-70
2022/08/15 09:46:49;;;;;;;2.47;2.27;;;26.00;99.90;;;;;;5031441;28;20450;-72
2022/08/15 09:49:33;;;;;;;2.70;2.10;;;26.00;99.90;;;;;;5031550;28;20394;-71
2022/08/15 09:52:09;;;;;;;6.47;2.87;;;25.90;99.90;;;;;;5030159;28;20465;-70
2022/08/15 09:54:46;;;;;;;2.57;2.37;;;25.80;99.90;;;;;;5030045;28;20414;-71
2022/08/15 09:57:31;;;;;;;3.93;2.17;;;25.80;99.90;;;;;;5031617;28;20409;-71
2022/08/15 10:00:17;;;;;;;2.70;2.50;;;25.70;99.90;;;;;;5031769;28;20413;-72
2022/08/15 10:02:46;;;;;;;2.20;1.97;;;25.70;99.90;;;;;;5031522;28;20504;-72
2022/08/15 10:05:27;;;;;;;3.10;2.17;;;25.70;99.90;;;;;;5031298;28;20906;-71
2022/08/15 10:07:59;;;;;;;3.13;2.63;;;25.70;99.90;;;;;;5031425;28;20458;-72
2022/08/15 10:10:51;;;;;;;4.90;2.70;;;25.70;99.90;;;;;;5031598;28;20414;-72
2022/08/15 10:13:42;;;;;;;1.67;1.57;;;25.70;99.90;;;;;;5031959;28;20426;-72
2022/08/15 10:16:41;;;;;;;2.43;2.23;;;25.70;99.90;;;;;;5031306;28;20483;-73
2022/08/15 10:19:35;;;;;;;4.47;2.80;;;25.70;99.90;;;;;;5031334;28;20957;-72
2022/08/15 10:22:22;;;;;;;3.00;2.40;;;25.70;99.90;;;;;;5030129;28;20472;-72
2022/08/15 10:25:18;;;;;;;3.83;2.57;;;25.70;99.90;;;;;;5019931;28;20984;-73
2022/08/15 10:27:53;;;;;;;2.63;2.37;;;25.80;99.90;;;;;;5031275;28;20450;-73
2022/08/15 10:30:20;;;;;;;3.00;2.43;;;25.80;99.90;;;;;;5031319;28;20405;-72
2022/08/15 10:32:45;;;;;;;2.77;2.50;;;25.80;99.90;;;;;;5031278;28;20425;-71
2022/08/15 10:35:15;;;;;;;3.23;2.30;;;25.80;99.90;;;;;;5031020;28;20756;-72
2022/08/15 10:37:51;;;;;;;2.50;1.87;;;25.90;99.90;;;;;;5031318;28;20213;-72
2022/08/15 10:40:33;;;;;;;2.30;2.10;;;25.80;99.90;;;;;;5031260;28;20402;-72
2022/08/15 10:43:14;;;;;;;2.60;2.30;;;25.80;99.90;;;;;;5031293;28;20430;-72
2022/08/15 10:46:17;;;;;;;3.20;2.20;;;25.90;99.90;;;;;;5030954;28;20409;-71
2022/08/15 10:49:02;;;;;;;3.30;2.63;;;25.80;99.90;;;;;;5031225;28;20493;-71
2022/08/15 10:51:46;;;;;;;4.73;4.13;;;25.70;99.90;;;;;;5030769;28;20430;-72
2022/08/15 10:54:41;;;;;;;2.90;2.17;;;25.60;99.90;;;;;;5034408;28;20397;-72
2022/08/15 10:57:08;;;;;;;2.90;2.40;;;25.40;99.90;;;;;;5032498;28;20414;-74
2022/08/15 10:59:45;;;;;;;3.27;2.70;;;25.30;99.90;;;;;;5034631;28;20413;-71
2022/08/15 11:02:32;;;;;;;2.60;2.40;;;25.10;99.90;;;;;;5034541;28;20830;-72
2022/08/15 11:05:05;;;;;;;3.00;2.70;;;25.00;99.90;;;;;;5034404;28;20402;-72
2022/08/15 11:07:36;;;;;;;2.63;2.40;;;24.90;99.90;;;;;;5033238;28;20473;-71
2022/08/15 11:10:08;;;;;;;2.80;2.20;;;24.90;99.90;;;;;;5034622;28;20403;-72
2022/08/15 11:12:40;;;;;;;3.23;2.50;;;24.80;99.90;;;;;;5034523;28;20414;-71
2022/08/15 11:15:22;;;;;;;2.40;2.27;;;24.80;99.90;;;;;;5034314;28;20398;-71
2022/08/15 11:18:03;;;;;;;2.60;2.40;;;24.80;99.90;;;;;;5035061;28;20484;-71
2022/08/15 11:20:42;;;;;;;4.90;2.87;;;24.80;99.90;;;;;;5035035;28;20460;-72
2022/08/15 11:23:09;;;;;;;3.33;3.13;;;24.80;99.90;;;;;;5034707;28;20418;-71
2022/08/15 11:25:39;;;;;;;2.40;2.20;;;24.80;99.90;;;;;;5033872;28;20413;-72
2022/08/15 11:28:21;;;;;;;2.70;2.50;;;24.70;99.90;;;;;;5034095;28;20520;-72
2022/08/15 11:30:47;;;;;;;3.90;3.03;;;24.60;99.90;;;;;;5034385;28;20398;-72
2022/08/15 11:33:24;;;;;;;4.23;2.47;;;24.30;99.90;;;;;;5034267;28;20477;-72
2022/08/15 11:36:21;;;;;;;3.00;2.17;;;24.30;99.90;;;;;;5034596;28;20410;-72
2022/08/15 11:38:51;;;;;;;3.10;2.67;;;24.30;99.90;;;;;;5034077;28;20418;-70
2022/08/15 11:41:24;;;;;;;2.70;2.40;;;24.30;99.90;;;;;;5034021;28;20414;-73
2022/08/15 11:43:51;;;;;;;2.80;2.33;;;24.40;99.90;;;;;;5033897;28;20806;-73
2022/08/15 11:46:18;;;;;;;3.20;2.90;;;24.60;99.90;;;;;;5032193;28;20411;-72
2022/08/15 11:48:57;;;;;;;2.27;2.07;;;24.80;99.90;;;;;;5033728;28;20406;-72
2022/08/15 11:51:33;;;;;;;3.10;2.50;;;25.00;99.90;;;;;;5033474;28;20462;-72
2022/08/15 11:54:13;;;;;;;2.30;2.10;;;25.10;99.90;;;;;;5033668;28;20414;-70
2022/08/15 11:56:58;;;;;;;3.10;2.73;;;25.10;99.90;;;;;;5033635;28;20406;-72
2022/08/15 11:59:31;;;;;;;2.63;2.43;;;25.10;99.90;;;;;;5033607;28;20498;-72
2022/08/15 12:02:05;;;;;;;2.47;2.27;;;25.20;99.90;;;;;;5033447;28;20803;-72
2022/08/15 12:04:33;;;;;;;3.00;2.73;;;25.30;99.90;;;;;;5033078;28;20406;-72
2022/08/15 12:07:15;;;;;;;2.60;2.40;;;25.20;99.90;;;;;;5033446;28;20512;-72
2022/08/15 12:09:56;;;;;;;3.23;2.70;;;25.10;99.90;;;;;;5032046;28;20779;-72
2022/08/15 12:12:40;;;;;;;2.77;2.47;;;25.00;99.90;;;;;;5033310;28;20433;-71
2022/08/15 12:15:10;;;;;;;3.47;2.90;;;25.00;99.90;;;;;;5033115;28;20476;-71
2022/08/15 12:17:35;;;;;;;4.90;2.80;;;24.90;99.90;;;;;;5033244;28;20488;-71
2022/08/15 12:20:04;;;;;;;2.40;2.20;;;24.90;99.90;;;;;;5033091;28;20498;-71
2022/08/15 12:22:30;;;;;;;2.73;2.53;;;24.80;99.90;;;;;;5031728;28;20266;-71
2022/08/15 12:24:57;;;;;;;5.50;2.40;;;24.80;99.90;;;;;;5032793;28;20497;-71
2022/08/15 12:27:23;;;;;;;3.10;2.80;;;24.70;99.90;;;;;;5032925;28;20450;-71
2022/08/15 12:29:49;;;;;;;4.10;2.87;;;24.80;99.90;;;;;;5032959;28;20410;-71
2022/08/15 12:32:15;;;;;;;3.40;3.03;;;24.90;99.90;;;;;;5032897;28;20245;-71
2022/08/15 12:34:45;;;;;;;3.13;2.60;;;25.00;99.90;;;;;;5032541;28;20410;-71
2022/08/15 12:37:17;;;;;;;3.50;3.20;;;25.20;99.90;;;;;;5031496;28;20171;-71
2022/08/15 12:39:44;;;;;;;3.63;2.40;;;25.40;99.90;;;;;;5032747;28;20414;-70
2022/08/15 12:42:21;;;;;;;4.10;3.10;;;25.50;99.90;;;;;;5032750;28;20850;-70
2022/08/15 12:44:49;;;;;;;3.07;2.73;;;25.70;99.90;;;;;;5032872;28;20496;-71
2022/08/15 12:47:16;;;;;;;2.97;2.60;;;25.90;99.90;;;;;;5033253;28;20540;-71
2022/08/15 12:49:44;;;;;;;3.70;2.53;;;26.20;99.90;;;;;;5033195;28;20429;-72
2022/08/15 12:52:10;;;;;;;2.73;2.50;;;26.50;99.90;;;;;;5033020;28;20446;-72
2022/08/15 12:54:35;;;;;;;3.70;3.10;;;26.90;99.90;;;;;;5031414;28;20469;-72
2022/08/15 12:57:01;;;;;;;5.00;3.10;;;27.20;99.90;;;;;;5033538;28;20403;-72
2022/08/15 12:59:26;;;;;;;3.30;3.00;;;27.60;99.90;;;;;;5032691;28;20183;-72
2022/08/15 13:01:52;;;;;;;3.23;2.87;;;28.00;99.90;;;;;;5032393;28;20198;-73
2022/08/15 13:04:17;;;;;;;3.17;2.93;;;28.10;99.90;;;;;;5032180;28;20178;-73
2022/08/15 13:06:50;;;;;;;3.13;2.50;;;28.20;99.90;;;;;;5032372;28;20202;-72
2022/08/15 13:09:18;;;;;;;3.10;2.90;;;28.40;99.90;;;;;;5033012;28;20170;-72
2022/08/15 13:11:46;;;;;;;2.77;2.57;;;28.40;99.90;;;;;;5032303;28;20426;-72
2022/08/15 13:14:13;;;;;;;3.60;3.30;;;28.30;99.90;;;;;;5030683;28;20425;-72
2022/08/15 13:16:40;;;;;;;5.20;3.93;;;28.00;99.90;;;;;;5031698;28;20493;-72
2022/08/15 13:19:08;;;;;;;5.20;3.50;;;28.00;99.90;;;;;;5032317;28;20423;-73
2022/08/15 13:24:19;;;;;;;5.47;4.97;;;28.70;99.90;;;;;;5031826;28;20441;-72
2022/08/15 13:26:46;;;;;;;6.03;4.30;;;29.50;99.90;;;;;;5031911;28;20481;-72